sensor_id;sensor_type;location;lat;lon;timestamp;temperature;humidity
16273;DHT22;8244;50.044;9.006;2023-03-31T00:02:18;11.20;99.90
16273;DHT22;8244;50.044;9.006;2023-03-31T00:07:22;11.10;99.90
16273;DHT22;8244;50.044;9.006;2023-03-31T00:12:23;11.10;99.90
16273;DHT22;8244;50.044;9.006;2023-03-31T00:17:26;11.10;99.90
16273;DHT22;8244;50.044;9.006;2023-03-31T00:22:28;11.10;99.90
16273;DHT22;8244;50.044;9.006;2023-03-31T00:27:30;11.00;99.90
16273;DHT22;8244;50.044;9.006;2023-03-31T00:32:33;11.00;99.90
16273;DHT22;8244;50.044;9.006;2023-03-31T00:37:35;11.00;99.90
16273;DHT22;8244;50.044;9.006;2023-03-31T00:42:39;11.00;99.90
16273;DHT22;8244;50.044;9.006;2023-03-31T00:47:44;10.90;99.90
16273;DHT22;8244;50.044;9.006;2023-03-31T00:52:50;11.00;99.90
16273;DHT22;8244;50.044;9.006;2023-03-31T00:57:53;11.00;99.90
16273;DHT22;8244;50.044;9.006;2023-03-31T01:02:58;10.90;99.90
16273;DHT22;8244;50.044;9.006;2023-03-31T01:08:04;10.80;99.90
16273;DHT22;8244;50.044;9.006;2023-03-31T01:13:07;10.80;99.90
16273;DHT22;8244;50.044;9.006;2023-03-31T01:18:12;10.80;99.90
16273;DHT22;8244;50.044;9.006;2023-03-31T01:23:33;10.70;99.90
16273;DHT22;8244;50.044;9.006;2023-03-31T01:28:44;10.70;99.90
16273;DHT22;8244;50.044;9.006;2023-03-31T01:40:06;10.70;99.90
16273;DHT22;8244;50.044;9.006;2023-03-31T01:45:18;10.80;99.90
16273;DHT22;8244;50.044;9.006;2023-03-31T01:50:27;10.80;99.90
16273;DHT22;8244;50.044;9.006;2023-03-31T01:55:34;10.80;99.90
16273;DHT22;8244;50.044;9.006;2023-03-31T02:00:39;10.70;99.90
16273;DHT22;8244;50.044;9.006;2023-03-31T02:05:45;10.70;99.90
16273;DHT22;8244;50.044;9.006;2023-03-31T02:10:50;10.60;99.90
16273;DHT22;8244;50.044;9.006;2023-03-31T02:15:55;10.60;99.90
16273;DHT22;8244;50.044;9.006;2023-03-31T02:20:59;10.60;99.90
16273;DHT22;8244;50.044;9.006;2023-03-31T02:26:04;10.50;99.90
16273;DHT22;8244;50.044;9.006;2023-03-31T02:31:16;10.50;99.90
16273;DHT22;8244;50.044;9.006;2023-03-31T02:36:23;10.40;99.90
16273;DHT22;8244;50.044;9.006;2023-03-31T02:41:26;10.30;99.90
16273;DHT22;8244;50.044;9.006;2023-03-31T02:46:28;10.30;99.90
16273;DHT22;8244;50.044;9.006;2023-03-31T02:51:54;10.30;99.90
16273;DHT22;8244;50.044;9.006;2023-03-31T02:57:17;10.20;99.90
16273;DHT22;8244;50.044;9.006;2023-03-31T03:02:27;10.20;99.90
16273;DHT22;8244;50.044;9.006;2023-03-31T03:07:35;10.30;99.90
16273;DHT22;8244;50.044;9.006;2023-03-31T03:12:48;10.30;99.90
16273;DHT22;8244;50.044;9.006;2023-03-31T03:17:54;10.20;99.90
16273;DHT22;8244;50.044;9.006;2023-03-31T03:22:56;10.20;99.90
16273;DHT22;8244;50.044;9.006;2023-03-31T03:27:59;10.30;99.90
16273;DHT22;8244;50.044;9.006;2023-03-31T03:33:01;10.30;99.90
16273;DHT22;8244;50.044;9.006;2023-03-31T03:38:05;10.30;99.90
16273;DHT22;8244;50.044;9.006;2023-03-31T03:43:08;10.30;99.90
16273;DHT22;8244;50.044;9.006;2023-03-31T03:48:10;10.30;99.90
16273;DHT22;8244;50.044;9.006;2023-03-31T03:53:11;10.30;99.90
16273;DHT22;8244;50.044;9.006;2023-03-31T03:58:15;10.30;99.90
16273;DHT22;8244;50.044;9.006;2023-03-31T04:03:19;10.30;99.90
16273;DHT22;8244;50.044;9.006;2023-03-31T04:08:20;10.30;99.90
16273;DHT22;8244;50.044;9.006;2023-03-31T04:13:23;10.30;99.90
16273;DHT22;8244;50.044;9.006;2023-03-31T04:18:25;10.30;99.90
16273;DHT22;8244;50.044;9.006;2023-03-31T04:23:26;10.20;99.90
16273;DHT22;8244;50.044;9.006;2023-03-31T04:28:29;10.20;99.90
16273;DHT22;8244;50.044;9.006;2023-03-31T04:33:34;10.20;99.90
16273;DHT22;8244;50.044;9.006;2023-03-31T04:38:38;10.10;99.90
16273;DHT22;8244;50.044;9.006;2023-03-31T04:43:41;10.10;99.90
16273;DHT22;8244;50.044;9.006;2023-03-31T04:48:42;10.10;99.90
16273;DHT22;8244;50.044;9.006;2023-03-31T04:53:44;10.10;99.90
16273;DHT22;8244;50.044;9.006;2023-03-31T04:58:47;10.10;99.90
16273;DHT22;8244;50.044;9.006;2023-03-31T05:03:49;10.10;99.90
16273;DHT22;8244;50.044;9.006;2023-03-31T05:08:51;10.10;99.90
16273;DHT22;8244;50.044;9.006;2023-03-31T05:13:54;10.10;99.90
16273;DHT22;8244;50.044;9.006;2023-03-31T05:18:55;10.10;99.90
16273;DHT22;8244;50.044;9.006;2023-03-31T05:23:57;10.10;99.90
16273;DHT22;8244;50.044;9.006;2023-03-31T05:29:00;10.10;99.90
16273;DHT22;8244;50.044;9.006;2023-03-31T05:34:01;10.10;99.90
16273;DHT22;8244;50.044;9.006;2023-03-31T05:39:03;10.20;99.90
16273;DHT22;8244;50.044;9.006;2023-03-31T05:44:06;10.10;99.90
16273;DHT22;8244;50.044;9.006;2023-03-31T05:49:08;10.10;99.90
16273;DHT22;8244;50.044;9.006;2023-03-31T05:54:10;10.20;99.90
16273;DHT22;8244;50.044;9.006;2023-03-31T05:59:13;10.10;99.90
16273;DHT22;8244;50.044;9.006;2023-03-31T06:04:15;10.10;99.90
16273;DHT22;8244;50.044;9.006;2023-03-31T06:09:17;10.10;99.90
16273;DHT22;8244;50.044;9.006;2023-03-31T06:14:20;10.10;99.90
16273;DHT22;8244;50.044;9.006;2023-03-31T06:19:22;10.10;99.90
16273;DHT22;8244;50.044;9.006;2023-03-31T06:24:24;10.10;99.90
16273;DHT22;8244;50.044;9.006;2023-03-31T06:29:27;10.10;99.90
16273;DHT22;8244;50.044;9.006;2023-03-31T06:34:29;10.10;99.90
16273;DHT22;8244;50.044;9.006;2023-03-31T06:39:30;10.10;99.90
16273;DHT22;8244;50.044;9.006;2023-03-31T06:44:33;10.00;99.90
16273;DHT22;8244;50.044;9.006;2023-03-31T06:49:35;10.00;99.90
16273;DHT22;8244;50.044;9.006;2023-03-31T06:54:36;10.00;99.90
16273;DHT22;8244;50.044;9.006;2023-03-31T06:59:39;10.00;99.90
16273;DHT22;8244;50.044;9.006;2023-03-31T07:04:41;10.00;99.90
16273;DHT22;8244;50.044;9.006;2023-03-31T07:09:43;10.10;99.90
16273;DHT22;8244;50.044;9.006;2023-03-31T07:14:46;10.10;99.90
16273;DHT22;8244;50.044;9.006;2023-03-31T07:19:47;10.10;99.90
16273;DHT22;8244;50.044;9.006;2023-03-31T07:24:53;10.10;99.90
16273;DHT22;8244;50.044;9.006;2023-03-31T07:29:56;10.20;99.90
16273;DHT22;8244;50.044;9.006;2023-03-31T07:34:58;10.20;99.90
16273;DHT22;8244;50.044;9.006;2023-03-31T07:39:59;10.30;99.90
16273;DHT22;8244;50.044;9.006;2023-03-31T07:45:03;10.30;99.90
16273;DHT22;8244;50.044;9.006;2023-03-31T07:50:07;10.30;99.90
16273;DHT22;8244;50.044;9.006;2023-03-31T07:55:09;10.40;99.90
16273;DHT22;8244;50.044;9.006;2023-03-31T08:00:14;10.40;99.90
16273;DHT22;8244;50.044;9.006;2023-03-31T08:05:17;10.40;99.90
16273;DHT22;8244;50.044;9.006;2023-03-31T08:10:21;10.40;99.90
16273;DHT22;8244;50.044;9.006;2023-03-31T08:15:24;10.50;99.90
16273;DHT22;8244;50.044;9.006;2023-03-31T08:20:26;10.60;99.90
16273;DHT22;8244;50.044;9.006;2023-03-31T08:25:28;10.80;99.90
16273;DHT22;8244;50.044;9.006;2023-03-31T08:30:31;10.90;99.90
16273;DHT22;8244;50.044;9.006;2023-03-31T08:35:33;11.10;99.90
16273;DHT22;8244;50.044;9.006;2023-03-31T08:40:39;11.40;99.90
16273;DHT22;8244;50.044;9.006;2023-03-31T08:45:45;12.10;99.90
16273;DHT22;8244;50.044;9.006;2023-03-31T08:50:51;13.30;99.90
16273;DHT22;8244;50.044;9.006;2023-03-31T08:55:55;13.80;99.90
16273;DHT22;8244;50.044;9.006;2023-03-31T09:01:04;13.50;99.90
16273;DHT22;8244;50.044;9.006;2023-03-31T09:06:10;13.00;99.90
16273;DHT22;8244;50.044;9.006;2023-03-31T09:11:25;12.90;99.90
16273;DHT22;8244;50.044;9.006;2023-03-31T09:16:34;12.70;99.90
16273;DHT22;8244;50.044;9.006;2023-03-31T09:21:39;12.60;99.90
16273;DHT22;8244;50.044;9.006;2023-03-31T09:26:45;12.70;99.90
16273;DHT22;8244;50.044;9.006;2023-03-31T09:31:49;13.00;99.90
16273;DHT22;8244;50.044;9.006;2023-03-31T09:36:52;14.00;99.90
16273;DHT22;8244;50.044;9.006;2023-03-31T09:41:53;14.30;99.90
16273;DHT22;8244;50.044;9.006;2023-03-31T09:46:59;14.10;99.90
16273;DHT22;8244;50.044;9.006;2023-03-31T09:52:11;14.00;99.90
16273;DHT22;8244;50.044;9.006;2023-03-31T09:57:21;13.90;99.90
16273;DHT22;8244;50.044;9.006;2023-03-31T10:02:34;13.90;99.90
16273;DHT22;8244;50.044;9.006;2023-03-31T10:07:37;13.90;99.90
16273;DHT22;8244;50.044;9.006;2023-03-31T10:12:38;14.00;99.90
16273;DHT22;8244;50.044;9.006;2023-03-31T10:17:43;14.10;99.90
16273;DHT22;8244;50.044;9.006;2023-03-31T10:22:45;14.00;99.90
16273;DHT22;8244;50.044;9.006;2023-03-31T10:27:50;13.70;99.90
16273;DHT22;8244;50.044;9.006;2023-03-31T10:32:54;13.50;99.90
16273;DHT22;8244;50.044;9.006;2023-03-31T10:37:57;13.10;99.90
16273;DHT22;8244;50.044;9.006;2023-03-31T10:43:11;12.90;99.90
16273;DHT22;8244;50.044;9.006;2023-03-31T10:48:23;12.90;99.90
16273;DHT22;8244;50.044;9.006;2023-03-31T10:53:26;13.30;99.90
16273;DHT22;8244;50.044;9.006;2023-03-31T10:58:37;13.60;99.90
16273;DHT22;8244;50.044;9.006;2023-03-31T11:03:53;13.50;99.90
16273;DHT22;8244;50.044;9.006;2023-03-31T11:09:09;13.00;99.90
16273;DHT22;8244;50.044;9.006;2023-03-31T11:14:18;12.90;99.90
16273;DHT22;8244;50.044;9.006;2023-03-31T11:19:30;13.00;99.90
16273;DHT22;8244;50.044;9.006;2023-03-31T11:24:50;13.10;99.90
16273;DHT22;8244;50.044;9.006;2023-03-31T11:30:00;13.40;99.90
16273;DHT22;8244;50.044;9.006;2023-03-31T11:35:15;13.80;99.90
16273;DHT22;8244;50.044;9.006;2023-03-31T11:40:30;14.40;99.90
16273;DHT22;8244;50.044;9.006;2023-03-31T11:45:40;14.60;99.90
16273;DHT22;8244;50.044;9.006;2023-03-31T11:50:44;15.00;99.90
16273;DHT22;8244;50.044;9.006;2023-03-31T11:55:50;15.50;99.90
16273;DHT22;8244;50.044;9.006;2023-03-31T12:00:57;16.00;99.90
16273;DHT22;8244;50.044;9.006;2023-03-31T12:06:04;16.70;99.90
16273;DHT22;8244;50.044;9.006;2023-03-31T12:11:12;16.80;99.90
16273;DHT22;8244;50.044;9.006;2023-03-31T12:16:18;16.70;99.90
16273;DHT22;8244;50.044;9.006;2023-03-31T12:21:24;16.70;99.90
16273;DHT22;8244;50.044;9.006;2023-03-31T12:26:36;16.80;99.90
16273;DHT22;8244;50.044;9.006;2023-03-31T12:31:42;16.70;99.90
16273;DHT22;8244;50.044;9.006;2023-03-31T12:36:55;17.10;99.90
16273;DHT22;8244;50.044;9.006;2023-03-31T12:42:11;17.40;99.90
16273;DHT22;8244;50.044;9.006;2023-03-31T12:47:33;17.50;99.90
16273;DHT22;8244;50.044;9.006;2023-03-31T12:52:46;18.10;99.90
16273;DHT22;8244;50.044;9.006;2023-03-31T12:57:50;18.10;99.90
16273;DHT22;8244;50.044;9.006;2023-03-31T13:08:54;17.50;99.90
16273;DHT22;8244;50.044;9.006;2023-03-31T13:13:59;17.70;99.90
16273;DHT22;8244;50.044;9.006;2023-03-31T13:25:40;18.10;99.90
16273;DHT22;8244;50.044;9.006;2023-03-31T13:30:54;17.80;99.90
16273;DHT22;8244;50.044;9.006;2023-03-31T13:36:12;17.50;99.90
16273;DHT22;8244;50.044;9.006;2023-03-31T13:41:23;17.50;99.90
16273;DHT22;8244;50.044;9.006;2023-03-31T13:52:03;18.10;99.90
16273;DHT22;8244;50.044;9.006;2023-03-31T13:57:33;18.40;99.90
16273;DHT22;8244;50.044;9.006;2023-03-31T14:02:51;18.10;99.90
16273;DHT22;8244;50.044;9.006;2023-03-31T14:07:58;17.60;99.90
16273;DHT22;8244;50.044;9.006;2023-03-31T14:13:09;17.20;99.90
16273;DHT22;8244;50.044;9.006;2023-03-31T14:18:15;16.90;99.90
16273;DHT22;8244;50.044;9.006;2023-03-31T14:23:28;16.90;99.90
16273;DHT22;8244;50.044;9.006;2023-03-31T14:28:42;16.70;99.90
16273;DHT22;8244;50.044;9.006;2023-03-31T14:34:00;16.50;99.90
16273;DHT22;8244;50.044;9.006;2023-03-31T14:39:10;16.20;99.90
16273;DHT22;8244;50.044;9.006;2023-03-31T14:44:14;16.20;99.90
16273;DHT22;8244;50.044;9.006;2023-03-31T14:49:20;16.40;99.90
16273;DHT22;8244;50.044;9.006;2023-03-31T14:54:22;16.70;99.90
16273;DHT22;8244;50.044;9.006;2023-03-31T14:59:27;16.70;99.90
16273;DHT22;8244;50.044;9.006;2023-03-31T15:04:36;16.70;99.90
16273;DHT22;8244;50.044;9.006;2023-03-31T15:09:47;16.70;99.90
16273;DHT22;8244;50.044;9.006;2023-03-31T15:14:54;16.30;99.90
16273;DHT22;8244;50.044;9.006;2023-03-31T15:19:59;16.30;99.90
16273;DHT22;8244;50.044;9.006;2023-03-31T15:25:02;16.00;99.90
16273;DHT22;8244;50.044;9.006;2023-03-31T15:30:07;16.10;99.90
16273;DHT22;8244;50.044;9.006;2023-03-31T15:35:19;16.10;99.90
16273;DHT22;8244;50.044;9.006;2023-03-31T15:40:24;16.00;99.90
16273;DHT22;8244;50.044;9.006;2023-03-31T15:45:47;15.50;99.90
16273;DHT22;8244;50.044;9.006;2023-03-31T15:50:51;15.10;99.90
16273;DHT22;8244;50.044;9.006;2023-03-31T15:55:54;14.90;99.90
16273;DHT22;8244;50.044;9.006;2023-03-31T16:01:03;14.80;99.90
16273;DHT22;8244;50.044;9.006;2023-03-31T16:06:07;14.30;99.90
16273;DHT22;8244;50.044;9.006;2023-03-31T16:11:12;14.30;99.90
16273;DHT22;8244;50.044;9.006;2023-03-31T16:16:18;14.30;99.90
16273;DHT22;8244;50.044;9.006;2023-03-31T16:21:23;14.20;99.90
16273;DHT22;8244;50.044;9.006;2023-03-31T16:26:27;14.20;99.90
16273;DHT22;8244;50.044;9.006;2023-03-31T16:31:33;14.30;99.90
16273;DHT22;8244;50.044;9.006;2023-03-31T16:36:35;14.20;99.90
16273;DHT22;8244;50.044;9.006;2023-03-31T16:41:37;14.00;99.90
16273;DHT22;8244;50.044;9.006;2023-03-31T16:46:40;14.00;99.90
16273;DHT22;8244;50.044;9.006;2023-03-31T16:51:41;13.80;99.90
16273;DHT22;8244;50.044;9.006;2023-03-31T16:56:43;13.60;99.90
16273;DHT22;8244;50.044;9.006;2023-03-31T17:01:47;13.40;99.90
16273;DHT22;8244;50.044;9.006;2023-03-31T17:06:48;13.20;99.90
16273;DHT22;8244;50.044;9.006;2023-03-31T17:11:50;12.90;99.90
16273;DHT22;8244;50.044;9.006;2023-03-31T17:16:53;12.80;99.90
16273;DHT22;8244;50.044;9.006;2023-03-31T17:21:55;12.70;99.90
16273;DHT22;8244;50.044;9.006;2023-03-31T17:27:01;12.60;99.90
16273;DHT22;8244;50.044;9.006;2023-03-31T17:32:04;12.50;99.90
16273;DHT22;8244;50.044;9.006;2023-03-31T17:37:05;12.50;99.90
16273;DHT22;8244;50.044;9.006;2023-03-31T17:42:07;12.30;99.90
16273;DHT22;8244;50.044;9.006;2023-03-31T17:47:10;12.20;99.90
16273;DHT22;8244;50.044;9.006;2023-03-31T17:52:12;12.20;99.90
16273;DHT22;8244;50.044;9.006;2023-03-31T17:57:14;12.10;99.90
16273;DHT22;8244;50.044;9.006;2023-03-31T18:02:17;12.00;99.90
16273;DHT22;8244;50.044;9.006;2023-03-31T18:07:20;12.00;99.90
16273;DHT22;8244;50.044;9.006;2023-03-31T18:12:22;11.90;99.90
16273;DHT22;8244;50.044;9.006;2023-03-31T18:17:25;11.80;99.90
16273;DHT22;8244;50.044;9.006;2023-03-31T18:22:27;11.80;99.90
16273;DHT22;8244;50.044;9.006;2023-03-31T18:27:28;11.70;99.90
16273;DHT22;8244;50.044;9.006;2023-03-31T18:32:31;11.60;99.90
16273;DHT22;8244;50.044;9.006;2023-03-31T18:37:33;11.60;99.90
16273;DHT22;8244;50.044;9.006;2023-03-31T18:42:35;11.50;99.90
16273;DHT22;8244;50.044;9.006;2023-03-31T18:47:38;11.40;99.90
16273;DHT22;8244;50.044;9.006;2023-03-31T18:52:40;11.30;99.90
16273;DHT22;8244;50.044;9.006;2023-03-31T18:57:41;11.20;99.90
16273;DHT22;8244;50.044;9.006;2023-03-31T19:02:45;11.20;99.90
16273;DHT22;8244;50.044;9.006;2023-03-31T19:07:46;11.10;99.90
16273;DHT22;8244;50.044;9.006;2023-03-31T19:12:48;11.00;99.90
16273;DHT22;8244;50.044;9.006;2023-03-31T19:17:51;11.00;99.90
16273;DHT22;8244;50.044;9.006;2023-03-31T19:22:53;10.90;99.90
16273;DHT22;8244;50.044;9.006;2023-03-31T19:27:55;10.90;99.90
16273;DHT22;8244;50.044;9.006;2023-03-31T19:32:58;10.90;99.90
16273;DHT22;8244;50.044;9.006;2023-03-31T19:38:01;10.90;99.90
16273;DHT22;8244;50.044;9.006;2023-03-31T19:43:03;10.80;99.90
16273;DHT22;8244;50.044;9.006;2023-03-31T19:48:06;10.80;99.90
16273;DHT22;8244;50.044;9.006;2023-03-31T19:53:08;10.80;99.90
16273;DHT22;8244;50.044;9.006;2023-03-31T19:58:09;10.80;99.90
16273;DHT22;8244;50.044;9.006;2023-03-31T20:03:13;10.70;99.90
16273;DHT22;8244;50.044;9.006;2023-03-31T20:08:15;10.70;99.90
16273;DHT22;8244;50.044;9.006;2023-03-31T20:13:16;10.70;99.90
16273;DHT22;8244;50.044;9.006;2023-03-31T20:18:19;10.60;99.90
16273;DHT22;8244;50.044;9.006;2023-03-31T20:23:21;10.60;99.90
16273;DHT22;8244;50.044;9.006;2023-03-31T20:28:22;10.60;99.90
16273;DHT22;8244;50.044;9.006;2023-03-31T20:33:26;10.60;99.90
16273;DHT22;8244;50.044;9.006;2023-03-31T20:38:27;10.60;99.90
16273;DHT22;8244;50.044;9.006;2023-03-31T20:43:29;10.60;99.90
16273;DHT22;8244;50.044;9.006;2023-03-31T20:48:35;10.60;99.90
16273;DHT22;8244;50.044;9.006;2023-03-31T20:53:37;10.50;99.90
16273;DHT22;8244;50.044;9.006;2023-03-31T20:58:42;10.50;99.90
16273;DHT22;8244;50.044;9.006;2023-03-31T21:03:47;10.50;99.90
16273;DHT22;8244;50.044;9.006;2023-03-31T21:08:51;10.50;99.90
16273;DHT22;8244;50.044;9.006;2023-03-31T21:13:53;10.50;99.90
16273;DHT22;8244;50.044;9.006;2023-03-31T21:18:56;10.40;99.90
16273;DHT22;8244;50.044;9.006;2023-03-31T21:23:59;10.40;99.90
16273;DHT22;8244;50.044;9.006;2023-03-31T21:29:00;10.40;99.90
16273;DHT22;8244;50.044;9.006;2023-03-31T21:34:03;10.40;99.90
16273;DHT22;8244;50.044;9.006;2023-03-31T21:39:05;10.40;99.90
16273;DHT22;8244;50.044;9.006;2023-03-31T21:44:08;10.40;99.90
16273;DHT22;8244;50.044;9.006;2023-03-31T21:49:11;10.40;99.90
16273;DHT22;8244;50.044;9.006;2023-03-31T21:54:13;10.40;99.90
16273;DHT22;8244;50.044;9.006;2023-03-31T21:59:15;10.40;99.90
16273;DHT22;8244;50.044;9.006;2023-03-31T22:04:18;10.40;99.90
16273;DHT22;8244;50.044;9.006;2023-03-31T22:09:19;10.40;99.90
16273;DHT22;8244;50.044;9.006;2023-03-31T22:14:21;10.40;99.90
16273;DHT22;8244;50.044;9.006;2023-03-31T22:19:24;10.40;99.90
16273;DHT22;8244;50.044;9.006;2023-03-31T22:24:26;10.40;99.90
16273;DHT22;8244;50.044;9.006;2023-03-31T22:29:27;10.40;99.90
16273;DHT22;8244;50.044;9.006;2023-03-31T22:34:30;10.40;99.90
16273;DHT22;8244;50.044;9.006;2023-03-31T22:39:32;10.40;99.90
16273;DHT22;8244;50.044;9.006;2023-03-31T22:44:34;10.40;99.90
16273;DHT22;8244;50.044;9.006;2023-03-31T22:49:38;10.40;99.90
16273;DHT22;8244;50.044;9.006;2023-03-31T22:54:40;10.40;99.90
16273;DHT22;8244;50.044;9.006;2023-03-31T22:59:42;10.40;99.90
16273;DHT22;8244;50.044;9.006;2023-03-31T23:04:45;10.40;99.90
16273;DHT22;8244;50.044;9.006;2023-03-31T23:09:47;10.40;99.90
16273;DHT22;8244;50.044;9.006;2023-03-31T23:14:48;10.40;99.90
16273;DHT22;8244;50.044;9.006;2023-03-31T23:19:52;10.40;99.90
16273;DHT22;8244;50.044;9.006;2023-03-31T23:24:53;10.40;99.90
16273;DHT22;8244;50.044;9.006;2023-03-31T23:29:55;10.40;99.90
16273;DHT22;8244;50.044;9.006;2023-03-31T23:34:58;10.50;99.90
16273;DHT22;8244;50.044;9.006;2023-03-31T23:40:00;10.50;99.90
16273;DHT22;8244;50.044;9.006;2023-03-31T23:45:02;10.50;99.90
16273;DHT22;8244;50.044;9.006;2023-03-31T23:50:06;10.50;99.90
16273;DHT22;8244;50.044;9.006;2023-03-31T23:55:08;10.50;99.90
